Time;durP1;ratioP1;P1;durP2;ratioP2;P2;SDS_P1;SDS_P2;PMS_P1;PMS_P2;Temp;Humidity;BMP_temperature;BMP_pressure;BME280_temperature;BME280_humidity;BME280_pressure;Samples;Min_cycle;Max_cycle;Signal;HPM_P1;HPM_P2
2021/12/12 00:00:28;;;;;;;41.42;14.45;;;;;;;;;;5050663;28;44728;-85
2021/12/12 00:02:57;;;;;;;41.13;13.85;;;;;;;;;;5051485;28;45905;-85
2021/12/12 00:05:27;;;;;;;44.28;15.10;;;;;;;;;;5051451;28;36150;-85
2021/12/12 00:07:54;;;;;;;42.38;14.75;;;;;;;;;;5050811;28;44006;-85
2021/12/12 00:10:23;;;;;;;37.67;14.10;;;;;;;;;;5051025;28;42676;-85
2021/12/12 00:12:52;;;;;;;39.30;13.30;;;;;;;;;;5051296;28;46232;-85
2021/12/12 00:15:19;;;;;;;42.45;13.35;;;;;;;;;;5050037;28;45943;-84
2021/12/12 00:17:47;;;;;;;44.42;13.65;;;;;;;;;;5051378;28;43910;-83
2021/12/12 00:20:14;;;;;;;31.60;13.80;;;;;;;;;;5050776;28;43715;-84
2021/12/12 00:22:41;;;;;;;38.85;12.63;;;;;;;;;;5050280;28;46436;-85
2021/12/12 00:25:10;;;;;;;40.72;13.27;;;;;;;;;;5051211;28;43900;-84
2021/12/12 00:27:37;;;;;;;38.50;13.30;;;;;;;;;;5051170;28;45877;-84
2021/12/12 00:30:09;;;;;;;41.08;14.27;;;;;;;;;;5049770;28;43893;-85
2021/12/12 00:32:37;;;;;;;34.08;12.95;;;;;;;;;;5051057;28;45958;-84
2021/12/12 00:35:06;;;;;;;34.17;11.93;;;;;;;;;;5050072;28;45275;-84
2021/12/12 00:37:33;;;;;;;30.80;12.30;;;;;;;;;;5052253;28;20534;-84
2021/12/12 00:40:04;;;;;;;39.30;13.35;;;;;;;;;;5050494;28;43707;-85
2021/12/12 00:42:33;;;;;;;40.97;12.45;;;;;;;;;;5049833;28;46145;-84
2021/12/12 00:45:03;;;;;;;33.53;12.30;;;;;;;;;;5050535;28;45033;-85
2021/12/12 00:47:29;;;;;;;34.17;12.35;;;;;;;;;;5051139;28;43740;-83
2021/12/12 00:50:07;;;;;;;34.50;12.38;;;;;;;;;;5049351;28;43906;-84
2021/12/12 00:52:34;;;;;;;45.15;14.45;;;;;;;;;;5050408;28;45833;-85
2021/12/12 00:55:01;;;;;;;34.92;12.98;;;;;;;;;;5050533;28;44759;-85
2021/12/12 00:57:29;;;;;;;39.92;12.57;;;;;;;;;;5049040;28;43463;-85
2021/12/12 00:59:56;;;;;;;33.22;11.80;;;;;;;;;;5050274;28;45743;-84
2021/12/12 01:02:25;;;;;;;44.67;11.55;;;;;;;;;;5050210;28;43928;-85
2021/12/12 01:04:54;;;;;;;34.90;10.65;;;;;;;;;;5049322;28;45016;-84
2021/12/12 01:07:23;;;;;;;35.22;12.18;;;;;;;;;;5049979;28;43874;-84
2021/12/12 01:09:53;;;;;;;34.22;12.02;;;;;;;;;;5050494;28;44780;-84
2021/12/12 01:12:22;;;;;;;32.92;11.50;;;;;;;;;;5049144;28;44663;-84
2021/12/12 01:14:52;;;;;;;35.90;11.10;;;;;;;;;;5049872;28;44927;-85
2021/12/12 01:17:22;;;;;;;32.22;10.75;;;;;;;;;;5049518;28;42918;-85
2021/12/12 01:19:52;;;;;;;34.28;11.18;;;;;;;;;;5049854;28;43707;-84
2021/12/12 01:22:24;;;;;;;36.40;10.25;;;;;;;;;;5049927;28;44517;-84
2021/12/12 01:24:52;;;;;;;23.23;9.00;;;;;;;;;;5049852;28;20046;-85
2021/12/12 01:27:20;;;;;;;41.05;10.73;;;;;;;;;;5050090;28;45677;-84
2021/12/12 01:29:49;;;;;;;26.30;9.23;;;;;;;;;;5049320;28;46125;-84
2021/12/12 01:32:32;;;;;;;38.70;9.70;;;;;;;;;;5049550;28;44843;-84
2021/12/12 01:34:59;;;;;;;26.27;9.90;;;;;;;;;;5049408;28;44894;-85
2021/12/12 01:39:57;;;;;;;24.25;9.02;;;;;;;;;;5048813;28;45645;-84
2021/12/12 01:42:25;;;;;;;22.55;8.95;;;;;;;;;;5050032;28;44924;-84
2021/12/12 01:45:01;;;;;;;35.63;9.23;;;;;;;;;;5049173;28;43954;-84
2021/12/12 01:47:34;;;;;;;22.92;8.23;;;;;;;;;;5049433;28;43642;-84
2021/12/12 01:50:03;;;;;;;33.17;9.40;;;;;;;;;;5050032;28;46491;-84
2021/12/12 01:52:31;;;;;;;29.15;8.45;;;;;;;;;;5048894;28;44971;-83
2021/12/12 01:55:11;;;;;;;27.60;8.27;;;;;;;;;;5049459;28;46043;-85
2021/12/12 01:57:40;;;;;;;30.80;8.50;;;;;;;;;;5049769;28;44889;-84
2021/12/12 02:00:11;;;;;;;45.83;10.52;;;;;;;;;;5048597;28;45622;-85
2021/12/12 02:02:38;;;;;;;43.70;10.73;;;;;;;;;;5049674;28;44918;-84
2021/12/12 02:05:08;;;;;;;36.33;10.50;;;;;;;;;;5049129;28;42962;-84
2021/12/12 02:07:36;;;;;;;30.92;9.75;;;;;;;;;;5048740;28;45698;-84
2021/12/12 02:10:10;;;;;;;32.67;9.52;;;;;;;;;;5049031;28;43989;-83
2021/12/12 02:12:37;;;;;;;28.02;9.85;;;;;;;;;;5050540;28;20050;-85
2021/12/12 02:15:07;;;;;;;36.45;10.70;;;;;;;;;;5048616;28;44755;-84
2021/12/12 02:17:39;;;;;;;30.65;9.60;;;;;;;;;;5049778;28;43843;-84
2021/12/12 02:20:39;;;;;;;30.77;9.00;;;;;;;;;;5049169;28;45645;-84
2021/12/12 02:23:38;;;;;;;38.13;9.75;;;;;;;;;;5044874;28;44927;-85
2021/12/12 02:37:04;;;;;;;35.85;12.10;;;;;;;;;;5031004;28;20053;-84
2021/12/12 02:39:31;;;;;;;49.47;12.27;;;;;;;;;;5029125;28;44002;-84
2021/12/12 02:42:01;;;;;;;51.72;13.10;;;;;;;;;;5028615;28;43860;-84
2021/12/12 02:44:30;;;;;;;34.35;11.05;;;;;;;;;;5028593;28;45987;-85
2021/12/12 02:46:59;;;;;;;41.58;11.13;;;;;;;;;;5029426;28;44921;-85
2021/12/12 02:52:09;;;;;;;43.05;11.88;;;;;;;;;;5029445;28;43936;-85
2021/12/12 02:54:36;;;;;;;42.22;12.57;;;;;;;;;;5028754;28;44945;-85
2021/12/12 02:57:03;;;;;;;37.13;11.93;;;;;;;;;;5028532;28;43659;-85
2021/12/12 02:59:31;;;;;;;30.35;11.35;;;;;;;;;;5028406;28;44004;-85
2021/12/12 03:02:04;;;;;;;37.47;12.30;;;;;;;;;;5030531;28;20463;-85
2021/12/12 03:04:31;;;;;;;42.03;13.93;;;;;;;;;;5027801;28;43932;-85
2021/12/12 03:06:58;;;;;;;42.13;14.73;;;;;;;;;;5029005;28;42978;-85
2021/12/12 03:09:31;;;;;;;37.58;12.45;;;;;;;;;;5028422;28;45740;-84
2021/12/12 03:12:03;;;;;;;34.60;13.68;;;;;;;;;;5027630;28;44597;-85
2021/12/12 03:14:32;;;;;;;34.72;14.45;;;;;;;;;;5028481;28;44955;-85
2021/12/12 03:17:19;;;;;;;29.23;12.18;;;;;;;;;;5028009;28;45863;-84
2021/12/12 03:19:47;;;;;;;35.58;14.13;;;;;;;;;;5028239;28;43932;-85
2021/12/12 03:22:14;;;;;;;35.20;14.48;;;;;;;;;;5031701;28;44998;-84
2021/12/12 03:24:41;;;;;;;33.35;14.85;;;;;;;;;;5031704;28;43740;-85
2021/12/12 03:27:08;;;;;;;31.65;14.35;;;;;;;;;;5032211;28;44959;-85
2021/12/12 03:29:35;;;;;;;27.05;11.25;;;;;;;;;;5041380;28;42378;-85
2021/12/12 03:32:07;;;;;;;37.83;15.32;;;;;;;;;;5058730;28;45948;-85
2021/12/12 03:34:35;;;;;;;40.53;15.43;;;;;;;;;;5052011;28;43857;-85
2021/12/12 03:37:02;;;;;;;;;;;;;;;;;;5053711;28;44711;-85
2021/12/12 03:39:30;;;;;;;29.08;12.95;;;;;;;;;;5051028;28;46033;-84
2021/12/12 03:41:58;;;;;;;42.92;16.85;;;;;;;;;;5051707;28;42893;-85
2021/12/12 03:44:26;;;;;;;49.60;18.17;;;;;;;;;;5051019;28;45664;-85
2021/12/12 03:46:53;;;;;;;;;;;;;;;;;;5052774;28;46042;-84
2021/12/12 03:49:20;;;;;;;34.05;15.07;;;;;;;;;;5051676;28;45768;-84
2021/12/12 03:51:47;;;;;;;35.55;16.17;;;;;;;;;;5051421;28;45990;-84
2021/12/12 03:54:16;;;;;;;35.85;15.10;;;;;;;;;;5052396;28;20053;-84
2021/12/12 03:56:43;;;;;;;36.30;16.40;;;;;;;;;;5052094;28;45988;-84
2021/12/12 03:59:10;;;;;;;42.92;18.80;;;;;;;;;;5050520;28;43951;-84
2021/12/12 04:01:39;;;;;;;41.33;18.77;;;;;;;;;;5051612;28;43798;-85
2021/12/12 04:04:15;;;;;;;42.30;18.85;;;;;;;;;;5051155;28;45763;-84
2021/12/12 04:06:41;;;;;;;40.97;20.45;;;;;;;;;;5050765;28;44958;-84
2021/12/12 04:09:10;;;;;;;56.05;21.63;;;;;;;;;;5051493;28;44931;-84
2021/12/12 04:11:38;;;;;;;60.53;23.13;;;;;;;;;;5051271;28;44029;-84
2021/12/12 04:14:06;;;;;;;44.75;20.33;;;;;;;;;;5050278;28;43896;-85
2021/12/12 04:16:34;;;;;;;48.85;20.83;;;;;;;;;;5051368;28;44730;-85
2021/12/12 04:19:01;;;;;;;50.50;21.98;;;;;;;;;;5051802;28;20057;-85
2021/12/12 04:21:28;;;;;;;41.58;21.80;;;;;;;;;;5050657;28;44054;-85
2021/12/12 04:23:56;;;;;;;72.40;25.02;;;;;;;;;;5050484;28;43691;-85
2021/12/12 04:26:31;;;;;;;53.30;22.88;;;;;;;;;;5051063;28;46036;-85
2021/12/12 04:29:17;;;;;;;71.60;26.27;;;;;;;;;;5049976;28;43882;-85
2021/12/12 04:31:49;;;;;;;62.45;26.52;;;;;;;;;;5050943;28;45259;-85
2021/12/12 04:34:17;;;;;;;68.18;27.45;;;;;;;;;;5049788;28;43891;-84
2021/12/12 04:36:46;;;;;;;69.18;28.65;;;;;;;;;;5051333;28;44716;-85
2021/12/12 04:39:13;;;;;;;;;;;;;;;;;;5051552;28;43955;-84
2021/12/12 04:41:40;;;;;;;62.78;25.58;;;;;;;;;;5050602;28;45014;-85
2021/12/12 04:44:07;;;;;;;57.15;25.52;;;;;;;;;;5050452;28;43906;-85
2021/12/12 04:49:54;;;;;;;64.80;28.33;;;;;;;;;;5050965;28;43913;-84
2021/12/12 04:52:15;;;;;;;58.13;26.77;;;;;;;;;;5051422;28;44732;-84
2021/12/12 04:54:48;;;;;;;57.80;27.23;;;;;;;;;;5050409;28;42951;-85
2021/12/12 04:57:19;;;;;;;73.05;30.00;;;;;;;;;;5049934;28;43643;-85
2021/12/12 04:59:48;;;;;;;52.80;26.73;;;;;;;;;;5050317;28;44005;-85
2021/12/12 05:02:21;;;;;;;66.43;28.77;;;;;;;;;;5049837;28;42901;-85
2021/12/12 05:04:52;;;;;;;72.65;29.63;;;;;;;;;;5049887;28;44715;-85
2021/12/12 05:07:20;;;;;;;61.67;28.88;;;;;;;;;;5050502;28;44855;-84
2021/12/12 05:09:50;;;;;;;;;;;;;;;;;;5050751;28;44259;-84
2021/12/12 05:12:20;;;;;;;55.42;26.15;;;;;;;;;;5050485;28;45490;-84
2021/12/12 05:14:53;;;;;;;52.05;26.65;;;;;;;;;;5050103;28;46028;-84
2021/12/12 05:17:32;;;;;;;69.18;30.33;;;;;;;;;;5049571;28;46055;-84
2021/12/12 05:20:00;;;;;;;62.03;29.35;;;;;;;;;;5049590;28;45126;-85
2021/12/12 05:22:32;;;;;;;72.47;29.75;;;;;;;;;;5050443;28;44958;-84
2021/12/12 05:25:00;;;;;;;57.97;28.70;;;;;;;;;;5049000;28;43713;-85
2021/12/12 05:27:27;;;;;;;69.97;30.55;;;;;;;;;;5049396;28;43951;-84
2021/12/12 05:29:57;;;;;;;72.35;30.75;;;;;;;;;;5048201;28;42850;-85
2021/12/12 05:32:24;;;;;;;67.32;30.70;;;;;;;;;;5047461;28;45820;-85
2021/12/12 05:34:51;;;;;;;74.83;29.33;;;;;;;;;;5047989;28;43985;-85
2021/12/12 05:37:19;;;;;;;102.38;34.63;;;;;;;;;;5047963;28;41870;-85
2021/12/12 05:39:46;;;;;;;74.75;32.20;;;;;;;;;;5048507;28;44726;-84
2021/12/12 05:42:14;;;;;;;92.72;33.75;;;;;;;;;;5049962;28;45026;-84
2021/12/12 05:44:41;;;;;;;119.93;37.92;;;;;;;;;;5048511;28;45814;-84
2021/12/12 05:47:09;;;;;;;84.15;33.28;;;;;;;;;;5049835;28;43946;-84
2021/12/12 05:49:36;;;;;;;110.88;35.85;;;;;;;;;;5049778;28;43993;-84
2021/12/12 05:52:06;;;;;;;81.60;31.98;;;;;;;;;;5049384;28;44843;-84
2021/12/12 05:54:33;;;;;;;110.18;38.42;;;;;;;;;;5048957;28;46105;-84
2021/12/12 05:57:01;;;;;;;106.25;35.70;;;;;;;;;;5049692;28;44596;-85
2021/12/12 05:59:28;;;;;;;84.35;33.35;;;;;;;;;;5048750;28;43882;-84
2021/12/12 06:01:59;;;;;;;107.88;37.88;;;;;;;;;;5049773;28;42892;-84
2021/12/12 06:04:25;;;;;;;108.30;36.55;;;;;;;;;;5048515;28;43786;-84
2021/12/12 06:06:52;;;;;;;84.70;34.45;;;;;;;;;;5048881;28;46041;-85
2021/12/12 06:09:20;;;;;;;169.65;43.83;;;;;;;;;;5049144;28;42914;-84
2021/12/12 06:11:48;;;;;;;122.75;38.22;;;;;;;;;;5049237;28;43853;-84
2021/12/12 06:14:16;;;;;;;120.43;38.15;;;;;;;;;;5048014;28;44544;-84
2021/12/12 06:16:43;;;;;;;161.00;44.10;;;;;;;;;;5050181;28;44813;-84
2021/12/12 06:19:16;;;;;;;130.88;39.90;;;;;;;;;;5048656;28;43714;-84
2021/12/12 06:21:44;;;;;;;132.85;41.55;;;;;;;;;;5048990;28;45115;-85
2021/12/12 06:24:10;;;;;;;114.88;40.60;;;;;;;;;;5048680;28;43739;-84
2021/12/12 06:26:37;;;;;;;126.55;40.08;;;;;;;;;;5048649;28;43938;-84
2021/12/12 06:29:05;;;;;;;102.38;39.67;;;;;;;;;;5048409;28;44920;-85
2021/12/12 06:31:34;;;;;;;117.90;40.00;;;;;;;;;;5049459;28;44730;-84
2021/12/12 06:34:00;;;;;;;154.98;42.15;;;;;;;;;;5048245;28;46069;-85
2021/12/12 06:36:27;;;;;;;125.68;41.90;;;;;;;;;;5049163;28;42979;-85
2021/12/12 06:38:55;;;;;;;155.05;44.28;;;;;;;;;;5048775;28;45004;-84
2021/12/12 06:41:22;;;;;;;117.93;40.47;;;;;;;;;;5048685;28;46034;-85
2021/12/12 06:43:49;;;;;;;132.32;42.80;;;;;;;;;;5048294;28;43739;-84
2021/12/12 06:46:17;;;;;;;142.67;43.80;;;;;;;;;;5049085;28;45348;-84
2021/12/12 06:48:44;;;;;;;184.60;47.42;;;;;;;;;;5047898;28;44841;-84
2021/12/12 06:51:12;;;;;;;106.38;39.88;;;;;;;;;;5048975;28;44751;-84
2021/12/12 06:53:39;;;;;;;165.23;48.15;;;;;;;;;;5048506;28;45947;-84
2021/12/12 06:56:08;;;;;;;171.23;49.08;;;;;;;;;;5047541;28;45274;-84
2021/12/12 06:58:35;;;;;;;152.57;44.30;;;;;;;;;;5048666;28;44824;-84
2021/12/12 07:01:11;;;;;;;185.00;47.75;;;;;;;;;;5049659;28;43987;-85
2021/12/12 07:03:38;;;;;;;131.07;44.90;;;;;;;;;;5047534;28;42890;-84
2021/12/12 07:06:05;;;;;;;152.18;44.83;;;;;;;;;;5049138;28;46420;-84
2021/12/12 07:08:33;;;;;;;193.18;48.42;;;;;;;;;;5048170;28;42743;-84
2021/12/12 07:11:00;;;;;;;261.58;55.05;;;;;;;;;;5047905;28;45740;-84
2021/12/12 07:13:27;;;;;;;184.73;47.90;;;;;;;;;;5048306;28;45068;-85
2021/12/12 07:15:56;;;;;;;173.05;47.22;;;;;;;;;;5048154;28;43846;-85
2021/12/12 07:18:25;;;;;;;173.70;47.67;;;;;;;;;;5048052;28;45749;-84
2021/12/12 07:20:52;;;;;;;214.05;51.05;;;;;;;;;;5048774;28;45978;-84
2021/12/12 07:23:19;;;;;;;283.55;55.40;;;;;;;;;;5048137;28;45200;-85
2021/12/12 07:25:46;;;;;;;341.85;60.60;;;;;;;;;;5051219;28;45877;-85
2021/12/12 07:28:13;;;;;;;221.93;55.03;;;;;;;;;;5048629;28;43911;-85
2021/12/12 07:30:40;;;;;;;288.88;60.17;;;;;;;;;;5047680;28;44686;-84
2021/12/12 07:33:07;;;;;;;388.05;64.03;;;;;;;;;;5048337;28;44929;-84
2021/12/12 07:35:35;;;;;;;304.33;59.22;;;;;;;;;;5048496;28;43949;-85
2021/12/12 07:38:05;;;;;;;352.00;64.15;;;;;;;;;;5047922;28;44332;-85
2021/12/12 07:40:31;;;;;;;241.75;58.25;;;;;;;;;;5048703;28;43710;-85
2021/12/12 07:42:58;;;;;;;474.80;72.63;;;;;;;;;;5048280;28;43993;-85
2021/12/12 07:45:25;;;;;;;359.70;68.68;;;;;;;;;;5047524;28;43816;-85
2021/12/12 07:47:52;;;;;;;300.60;62.63;;;;;;;;;;5048520;28;44968;-85
2021/12/12 07:50:21;;;;;;;396.50;70.53;;;;;;;;;;5048319;28;45869;-85
2021/12/12 07:52:47;;;;;;;;;;;;;;;;;;5048703;28;44018;-84
2021/12/12 07:55:14;;;;;;;400.73;66.95;;;;;;;;;;5048893;28;20284;-85
2021/12/12 07:57:42;;;;;;;315.20;64.68;;;;;;;;;;5048225;28;46378;-86
2021/12/12 08:00:12;;;;;;;311.38;62.63;;;;;;;;;;5047227;28;44012;-85
2021/12/12 08:02:40;;;;;;;319.33;65.40;;;;;;;;;;5047888;28;44897;-85
2021/12/12 08:05:07;;;;;;;431.23;71.18;;;;;;;;;;5046940;28;45869;-84
2021/12/12 08:07:36;;;;;;;340.52;63.15;;;;;;;;;;5049954;28;46620;-84
2021/12/12 08:10:05;;;;;;;283.85;59.17;;;;;;;;;;5051156;28;42671;-85
2021/12/12 08:12:32;;;;;;;278.25;59.83;;;;;;;;;;5050886;28;44495;-85
2021/12/12 08:15:01;;;;;;;243.57;56.85;;;;;;;;;;5050913;28;43402;-85
2021/12/12 08:17:28;;;;;;;229.68;56.40;;;;;;;;;;5051061;28;46147;-84
2021/12/12 08:19:56;;;;;;;262.17;57.90;;;;;;;;;;5049451;28;46467;-84
2021/12/12 08:22:24;;;;;;;376.20;64.75;;;;;;;;;;5051202;28;44838;-85
2021/12/12 08:24:51;;;;;;;221.13;55.70;;;;;;;;;;5050917;28;43663;-85
2021/12/12 08:27:17;;;;;;;289.52;58.00;;;;;;;;;;5050199;28;44916;-85
2021/12/12 08:29:44;;;;;;;247.02;55.15;;;;;;;;;;5050483;28;44925;-85
2021/12/12 08:32:12;;;;;;;355.25;60.63;;;;;;;;;;5050891;28;43711;-84
2021/12/12 08:34:59;;;;;;;247.13;53.97;;;;;;;;;;5049839;28;43963;-85
2021/12/12 08:37:27;;;;;;;279.95;58.03;;;;;;;;;;5051250;28;43848;-85
2021/12/12 08:39:54;;;;;;;337.20;58.08;;;;;;;;;;5050328;28;46085;-86
2021/12/12 08:42:26;;;;;;;314.55;58.70;;;;;;;;;;5050103;28;44861;-85
2021/12/12 08:44:56;;;;;;;272.98;56.90;;;;;;;;;;5050617;28;45753;-85
2021/12/12 08:47:23;;;;;;;355.83;61.50;;;;;;;;;;5049907;28;44987;-86
2021/12/12 08:49:51;;;;;;;334.85;62.67;;;;;;;;;;5050234;28;43963;-85
2021/12/12 08:52:29;;;;;;;357.35;60.65;;;;;;;;;;5051473;28;33441;-85
2021/12/12 08:54:56;;;;;;;374.17;64.93;;;;;;;;;;5049417;28;42726;-86
2021/12/12 08:57:47;;;;;;;428.83;65.18;;;;;;;;;;5051116;28;45750;-85
2021/12/12 09:00:31;;;;;;;221.93;52.17;;;;;;;;;;5050698;28;45778;-85
2021/12/12 09:02:59;;;;;;;204.70;48.70;;;;;;;;;;5050427;28;20081;-84
2021/12/12 09:05:30;;;;;;;253.57;50.97;;;;;;;;;;5050719;28;44708;-85
2021/12/12 09:08:14;;;;;;;218.80;49.90;;;;;;;;;;5050096;28;44910;-85
2021/12/12 09:10:43;;;;;;;406.60;59.10;;;;;;;;;;5050020;28;43949;-85
2021/12/12 09:13:16;;;;;;;259.70;49.00;;;;;;;;;;5049904;28;43598;-85
2021/12/12 09:15:46;;;;;;;210.32;47.72;;;;;;;;;;5049837;28;45906;-85
2021/12/12 09:18:20;;;;;;;236.38;46.92;;;;;;;;;;5049354;28;46143;-85
2021/12/12 09:20:55;;;;;;;208.25;47.20;;;;;;;;;;5030021;28;46174;-85
2021/12/12 09:23:24;;;;;;;224.77;48.72;;;;;;;;;;5029374;28;43077;-86
2021/12/12 09:25:53;;;;;;;212.82;47.78;;;;;;;;;;5031030;28;43757;-85
2021/12/12 09:28:35;;;;;;;169.93;41.10;;;;;;;;;;5029912;28;46030;-86
2021/12/12 09:31:07;;;;;;;163.85;42.45;;;;;;;;;;5029715;28;42455;-85
2021/12/12 09:33:49;;;;;;;207.05;44.28;;;;;;;;;;5030300;28;45824;-85
2021/12/12 09:36:18;;;;;;;234.35;46.42;;;;;;;;;;5030241;28;43928;-86
2021/12/12 09:38:51;;;;;;;169.40;41.63;;;;;;;;;;5029074;28;43931;-85
2021/12/12 09:41:41;;;;;;;279.02;52.70;;;;;;;;;;5030441;28;44222;-85
2021/12/12 09:44:28;;;;;;;303.95;52.25;;;;;;;;;;5048610;28;45138;-84
2021/12/12 09:52:52;;;;;;;233.07;49.10;;;;;;;;;;5041685;28;44942;-85
2021/12/12 09:55:28;;;;;;;268.10;49.70;;;;;;;;;;5049155;28;46425;-85
2021/12/12 09:57:57;;;;;;;228.25;48.33;;;;;;;;;;5029129;28;46209;-86
2021/12/12 10:00:27;;;;;;;177.88;42.45;;;;;;;;;;5027464;28;42810;-86
2021/12/12 10:03:02;;;;;;;153.63;42.58;;;;;;;;;;5027204;28;45972;-86
2021/12/12 10:05:48;;;;;;;255.88;47.60;;;;;;;;;;5026410;28;43947;-85
2021/12/12 10:08:30;;;;;;;198.70;41.20;;;;;;;;;;5027789;28;44766;-93
2021/12/12 10:11:05;;;;;;;112.85;33.70;;;;;;;;;;5029099;28;45955;-84
2021/12/12 10:13:38;;;;;;;191.30;40.80;;;;;;;;;;5027288;28;43855;-95
2021/12/12 10:16:14;;;;;;;139.52;36.85;;;;;;;;;;5029023;28;44725;-84
2021/12/12 10:19:00;;;;;;;111.32;33.42;;;;;;;;;;5031663;28;20419;-87
2021/12/12 10:21:37;;;;;;;92.82;30.88;;;;;;;;;;5048300;28;45234;-87
2021/12/12 10:24:12;;;;;;;113.20;31.58;;;;;;;;;;5048216;28;45787;-87
2021/12/12 10:26:41;;;;;;;89.32;30.73;;;;;;;;;;5048267;28;46274;-88
2021/12/12 10:29:12;;;;;;;72.22;27.17;;;;;;;;;;5048048;28;43746;-89
2021/12/12 10:31:42;;;;;;;99.82;30.52;;;;;;;;;;5048406;28;43932;-84
2021/12/12 10:34:11;;;;;;;111.55;29.67;;;;;;;;;;5047238;28;43948;-86
2021/12/12 10:36:47;;;;;;;67.72;26.23;;;;;;;;;;5050041;28;20518;-90
2021/12/12 10:39:25;;;;;;;77.05;27.73;;;;;;;;;;5048328;28;46068;-90
2021/12/12 10:41:57;;;;;;;79.38;26.92;;;;;;;;;;5047581;28;44054;-90
2021/12/12 10:44:29;;;;;;;88.85;27.95;;;;;;;;;;5047692;28;44917;-90
2021/12/12 10:46:56;;;;;;;83.78;27.85;;;;;;;;;;5048265;28;46015;-90
2021/12/12 10:49:26;;;;;;;96.70;28.98;;;;;;;;;;5048401;28;36147;-90
2021/12/12 10:52:00;;;;;;;77.50;27.10;;;;;;;;;;5053913;28;45351;-90
2021/12/12 10:54:50;;;;;;;80.03;26.35;;;;;;;;;;5054556;28;45082;-90
2021/12/12 10:57:28;;;;;;;86.47;25.60;;;;;;;;;;5045231;28;20054;-91
2021/12/12 11:00:12;;;;;;;102.95;27.67;;;;;;;;;;5055580;28;44231;-91
2021/12/12 11:02:45;;;;;;;62.92;23.58;;;;;;;;;;5056210;28;45013;-90
2021/12/12 11:05:14;;;;;;;90.72;27.95;;;;;;;;;;5054776;28;43664;-90
2021/12/12 11:07:45;;;;;;;67.50;26.80;;;;;;;;;;5057109;28;45836;-90
2021/12/12 11:10:16;;;;;;;119.68;32.28;;;;;;;;;;5063094;28;44289;-90
2021/12/12 11:12:56;;;;;;;134.10;32.92;;;;;;;;;;5065930;28;45155;-89
2021/12/12 11:15:29;;;;;;;83.50;29.15;;;;;;;;;;5054432;28;42959;-90
2021/12/12 11:18:04;;;;;;;90.15;30.23;;;;;;;;;;5047744;28;46023;-88
2021/12/12 11:20:45;;;;;;;103.38;32.10;;;;;;;;;;5047834;28;46302;-89
2021/12/12 11:23:19;;;;;;;150.63;36.67;;;;;;;;;;5046515;28;44202;-88
2021/12/12 11:25:48;;;;;;;88.43;29.20;;;;;;;;;;5047563;28;46010;-88
2021/12/12 11:28:20;;;;;;;141.05;32.53;;;;;;;;;;5047425;28;43733;-89
2021/12/12 11:30:54;;;;;;;216.82;38.80;;;;;;;;;;5046751;28;43626;-89
2021/12/12 11:33:21;;;;;;;160.00;36.20;;;;;;;;;;5047601;28;44534;-89
2021/12/12 11:35:52;;;;;;;104.28;31.27;;;;;;;;;;5048359;28;44910;-91
2021/12/12 11:38:35;;;;;;;150.60;35.00;;;;;;;;;;5046773;28;45917;-93
2021/12/12 11:41:20;;;;;;;122.88;31.83;;;;;;;;;;5048089;28;45944;-87
2021/12/12 11:44:05;;;;;;;105.47;30.27;;;;;;;;;;5049637;28;44970;-89
2021/12/12 11:46:59;;;;;;;111.20;30.83;;;;;;;;;;5047386;28;43717;-86
2021/12/12 11:49:31;;;;;;;127.82;31.63;;;;;;;;;;5049484;28;43940;-87
2021/12/12 11:52:03;;;;;;;78.93;26.45;;;;;;;;;;5048805;28;45448;-87
2021/12/12 11:54:40;;;;;;;105.63;30.13;;;;;;;;;;5041551;28;44694;-87
2021/12/12 11:57:10;;;;;;;75.85;28.25;;;;;;;;;;5050259;28;43978;-87
2021/12/12 11:59:57;;;;;;;157.00;33.40;;;;;;;;;;5069274;28;44704;-88
2021/12/12 12:02:53;;;;;;;173.13;33.42;;;;;;;;;;5049749;28;44454;-87
2021/12/12 12:05:41;;;;;;;83.78;27.48;;;;;;;;;;5030625;28;42349;-87
2021/12/12 12:08:26;;;;;;;141.68;30.33;;;;;;;;;;5049389;28;46000;-86
2021/12/12 12:11:11;;;;;;;100.10;29.15;;;;;;;;;;5049705;28;44957;-88
2021/12/12 12:13:38;;;;;;;144.52;32.00;;;;;;;;;;5047993;28;44874;-88
2021/12/12 12:16:16;;;;;;;84.75;27.00;;;;;;;;;;5048750;28;44911;-87
2021/12/12 12:18:50;;;;;;;86.88;26.67;;;;;;;;;;5047931;28;46246;-88
2021/12/12 12:21:27;;;;;;;85.18;26.80;;;;;;;;;;5049689;28;44566;-87
2021/12/12 12:26:51;;;;;;;101.90;30.48;;;;;;;;;;5048156;28;45309;-87
2021/12/12 12:29:21;;;;;;;119.03;30.27;;;;;;;;;;5048586;28;45802;-88
2021/12/12 12:32:10;;;;;;;77.32;25.90;;;;;;;;;;5048984;28;44983;-87
2021/12/12 12:34:49;;;;;;;57.45;23.50;;;;;;;;;;5046348;28;42901;-87
2021/12/12 12:37:36;;;;;;;197.32;35.17;;;;;;;;;;5048525;28;43732;-88
2021/12/12 12:40:21;;;;;;;98.95;28.20;;;;;;;;;;5048311;28;43996;-88
2021/12/12 12:43:06;;;;;;;82.60;27.15;;;;;;;;;;5047895;28;43910;-87
2021/12/12 12:45:52;;;;;;;77.47;26.42;;;;;;;;;;5048825;28;45927;-87
2021/12/12 12:48:44;;;;;;;92.93;29.77;;;;;;;;;;5028056;28;42799;-87
2021/12/12 12:51:32;;;;;;;113.50;30.52;;;;;;;;;;5028572;28;45926;-87
2021/12/12 12:54:19;;;;;;;73.82;25.08;;;;;;;;;;5026822;28;46230;-87
2021/12/12 12:57:06;;;;;;;123.57;29.95;;;;;;;;;;5029028;28;45062;-87
2021/12/12 12:59:55;;;;;;;93.72;26.27;;;;;;;;;;5028044;28;45813;-88
2021/12/12 13:02:34;;;;;;;103.95;30.00;;;;;;;;;;5028572;28;46222;-87
2021/12/12 13:05:07;;;;;;;106.70;32.17;;;;;;;;;;5027151;28;42684;-87
2021/12/12 13:07:40;;;;;;;103.60;30.85;;;;;;;;;;5028783;28;45034;-87
2021/12/12 13:10:09;;;;;;;110.53;32.17;;;;;;;;;;5029429;28;20054;-87
2021/12/12 13:12:40;;;;;;;82.65;31.02;;;;;;;;;;5028142;28;43793;-88
2021/12/12 13:15:09;;;;;;;127.25;34.42;;;;;;;;;;5026993;28;46054;-88
2021/12/12 13:17:43;;;;;;;142.45;34.60;;;;;;;;;;5028771;28;42846;-89
2021/12/12 13:20:23;;;;;;;95.18;32.10;;;;;;;;;;5043159;28;45881;-87
2021/12/12 13:23:15;;;;;;;83.05;30.48;;;;;;;;;;5047199;28;43966;-87
2021/12/12 13:25:46;;;;;;;94.32;30.13;;;;;;;;;;5011217;28;42926;-88
2021/12/12 13:28:19;;;;;;;100.53;32.80;;;;;;;;;;5048167;28;44898;-85
2021/12/12 13:31:00;;;;;;;128.77;36.55;;;;;;;;;;5046990;28;44565;-87
2021/12/12 13:33:31;;;;;;;106.22;33.50;;;;;;;;;;5046618;28;44317;-92
2021/12/12 13:35:58;;;;;;;84.45;30.17;;;;;;;;;;5047344;28;46130;-85
2021/12/12 13:38:39;;;;;;;155.38;38.33;;;;;;;;;;5047689;28;43880;-87
2021/12/12 13:41:06;;;;;;;90.60;30.33;;;;;;;;;;5048948;28;46406;-88
2021/12/12 13:43:47;;;;;;;105.20;32.35;;;;;;;;;;5053871;28;43995;-86
2021/12/12 13:46:33;;;;;;;105.10;27.73;;;;;;;;;;5057242;28;42608;-86
2021/12/12 13:49:17;;;;;;;135.52;34.13;;;;;;;;;;5054740;28;45949;-88
2021/12/12 13:51:44;;;;;;;84.55;29.63;;;;;;;;;;5047576;28;43953;-86
2021/12/12 13:54:30;;;;;;;116.57;31.48;;;;;;;;;;5046863;28;42370;-86
